Airfield :
LOGIN :

Register | Disclaimer

   EN    FR    IT 

 










Legend :    VFR   Marginal VFR   IFR   Intensive IFR   Very Intensive IFR
Visi :
Ceiling :
>= 8 km
>= 3000ft
5 to 8 km
1000 to 3000 ft
1500m to 5 km
500 to 1000 ft
800 to 1500m
200 to 500 ft
< 800m
< 200 ft
Symbols :   Thunderstorms  Fog  Heavy snow  Heavy precipitations  Wind > 20 kt
SIGMETs :     Misc.  Thunderstorms  Icing  Turbulence  Mountain Waves  Volcanic Ashes







- Airport Elevation : 779 ft
- IATA code : CMF
- Download approach charts


LFLB - Chambery / Aix-Les-Bains

CURRENT METAR :
  • 281230Z AUTO 02007KT 350V060 CAVOK 25/16 Q1017 NOSIG

EXPIRED METARs :
  • 281200Z AUTO 01008KT 340V050 9999 FEW043 25/17 Q1017 NOSIG
  • 281130Z AUTO 01008KT 340V040 9999 FEW041 SCT047 25/17 Q1017 NOSIG
  • 281100Z AUTO 01010KT 9999 FEW044 BKN180 25/17 Q1017 NOSIG
  • 281030Z AUTO 36008KT 9999 FEW038 BKN180 24/16 Q1017 NOSIG
  • 281000Z AUTO 01009KT 9999 FEW056 BKN180 24/16 Q1017 NOSIG

TAF TAF LFLB
Valid from the 28 at 06:00 until the 29 at 06:00 UTC


280500Z 2806/2906 36005KT 9999 BKN050
No reported NOTAMs for that airfield.



MET'MAP, your aeronautical weather chart ! - Copyright ORBIFLY December 2007 - Disclaimer

ORBIFLY MET'MAP TEAM :

Programming & Development : Alexandra Zaïnal
Concept & Development : Baudouin d'Aumeries
Co-Development & Prog : Marc-Olivier Méhu
Technical & hardware support : Manuel Goepfert

Contact : metmap@orbifly.com




SOURCES & CREDITS :

   NOAA